sensor_id;sensor_type;location;lat;lon;timestamp;P1;durP1;ratioP1;P2;durP2;ratioP2
59978;SDS011;45839;44.882;20.650;2023-06-22T03:28:48;11.15;;;7.18;;
59978;SDS011;45839;44.882;20.650;2023-06-22T03:31:14;10.68;;;6.68;;
59978;SDS011;45839;44.882;20.650;2023-06-22T03:33:40;11.48;;;7.28;;
59978;SDS011;45839;44.882;20.650;2023-06-22T03:36:06;11.70;;;7.53;;
59978;SDS011;45839;44.882;20.650;2023-06-22T03:38:34;10.30;;;6.60;;
59978;SDS011;45839;44.882;20.650;2023-06-22T03:41:00;12.48;;;7.10;;
59978;SDS011;45839;44.882;20.650;2023-06-22T03:43:26;11.90;;;7.00;;
59978;SDS011;45839;44.882;20.650;2023-06-22T03:45:52;12.65;;;7.38;;
59978;SDS011;45839;44.882;20.650;2023-06-22T03:48:18;8.88;;;6.15;;
59978;SDS011;45839;44.882;20.650;2023-06-22T03:50:44;12.55;;;7.07;;
59978;SDS011;45839;44.882;20.650;2023-06-22T03:53:10;9.63;;;6.63;;
59978;SDS011;45839;44.882;20.650;2023-06-22T03:55:40;11.00;;;6.70;;
59978;SDS011;45839;44.882;20.650;2023-06-22T03:58:06;11.68;;;6.95;;
59978;SDS011;45839;44.882;20.650;2023-06-22T04:00:34;9.57;;;7.10;;
59978;SDS011;45839;44.882;20.650;2023-06-22T04:03:00;9.52;;;6.50;;
59978;SDS011;45839;44.882;20.650;2023-06-22T04:05:26;10.57;;;6.50;;
59978;SDS011;45839;44.882;20.650;2023-06-22T04:07:52;7.93;;;6.40;;
59978;SDS011;45839;44.882;20.650;2023-06-22T04:10:18;8.77;;;6.43;;
59978;SDS011;45839;44.882;20.650;2023-06-22T04:12:44;8.68;;;6.07;;
59978;SDS011;45839;44.882;20.650;2023-06-22T04:15:10;9.35;;;6.55;;
59978;SDS011;45839;44.882;20.650;2023-06-22T04:17:37;20.75;;;16.38;;
59978;SDS011;45839;44.882;20.650;2023-06-22T04:20:04;24.70;;;20.13;;
59978;SDS011;45839;44.882;20.650;2023-06-22T04:22:30;18.63;;;15.57;;
59978;SDS011;45839;44.882;20.650;2023-06-22T04:24:56;19.88;;;16.50;;
59978;SDS011;45839;44.882;20.650;2023-06-22T04:27:22;17.40;;;13.75;;
59978;SDS011;45839;44.882;20.650;2023-06-22T04:29:48;44.40;;;35.33;;
59978;SDS011;45839;44.882;20.650;2023-06-22T04:32:16;20.23;;;17.67;;
59978;SDS011;45839;44.882;20.650;2023-06-22T04:34:49;16.20;;;12.73;;
59978;SDS011;45839;44.882;20.650;2023-06-22T04:37:17;20.52;;;17.83;;
59978;SDS011;45839;44.882;20.650;2023-06-22T04:39:43;13.55;;;11.50;;
59978;SDS011;45839;44.882;20.650;2023-06-22T04:42:09;14.15;;;9.63;;
59978;SDS011;45839;44.882;20.650;2023-06-22T04:44:38;19.77;;;16.20;;
59978;SDS011;45839;44.882;20.650;2023-06-22T04:47:06;31.92;;;28.45;;
59978;SDS011;45839;44.882;20.650;2023-06-22T04:49:34;22.20;;;19.88;;
59978;SDS011;45839;44.882;20.650;2023-06-22T04:52:03;21.42;;;18.92;;
59978;SDS011;45839;44.882;20.650;2023-06-22T04:54:29;22.73;;;20.38;;
59978;SDS011;45839;44.882;20.650;2023-06-22T04:56:58;22.95;;;20.52;;
59978;SDS011;45839;44.882;20.650;2023-06-22T04:59:24;37.38;;;33.47;;
59978;SDS011;45839;44.882;20.650;2023-06-22T05:01:53;13.15;;;11.07;;
59978;SDS011;45839;44.882;20.650;2023-06-22T05:04:19;15.63;;;11.18;;
59978;SDS011;45839;44.882;20.650;2023-06-22T05:06:45;19.85;;;15.90;;
59978;SDS011;45839;44.882;20.650;2023-06-22T05:09:11;16.95;;;14.38;;
59978;SDS011;45839;44.882;20.650;2023-06-22T05:11:38;18.13;;;13.70;;
59978;SDS011;45839;44.882;20.650;2023-06-22T05:14:04;18.73;;;13.98;;
59978;SDS011;45839;44.882;20.650;2023-06-22T05:16:30;19.90;;;17.75;;
59978;SDS011;45839;44.882;20.650;2023-06-22T05:18:57;19.42;;;17.40;;
59978;SDS011;45839;44.882;20.650;2023-06-22T05:21:23;23.00;;;20.60;;
59978;SDS011;45839;44.882;20.650;2023-06-22T05:23:50;34.30;;;30.75;;
59978;SDS011;45839;44.882;20.650;2023-06-22T05:26:16;15.77;;;13.95;;
59978;SDS011;45839;44.882;20.650;2023-06-22T05:28:42;38.35;;;34.15;;
59978;SDS011;45839;44.882;20.650;2023-06-22T05:31:11;61.83;;;55.15;;
59978;SDS011;45839;44.882;20.650;2023-06-22T05:33:37;55.00;;;49.13;;
59978;SDS011;45839;44.882;20.650;2023-06-22T05:36:03;37.42;;;33.17;;
59978;SDS011;45839;44.882;20.650;2023-06-22T05:38:30;50.70;;;45.40;;
59978;SDS011;45839;44.882;20.650;2023-06-22T05:40:56;45.42;;;40.63;;
59978;SDS011;45839;44.882;20.650;2023-06-22T05:43:22;23.75;;;21.13;;
59978;SDS011;45839;44.882;20.650;2023-06-22T05:45:48;24.70;;;22.10;;
59978;SDS011;45839;44.882;20.650;2023-06-22T05:48:14;20.95;;;18.50;;
59978;SDS011;45839;44.882;20.650;2023-06-22T05:50:40;38.35;;;34.28;;
59978;SDS011;45839;44.882;20.650;2023-06-22T05:53:06;22.33;;;16.60;;
59978;SDS011;45839;44.882;20.650;2023-06-22T05:55:32;20.98;;;18.73;;
59978;SDS011;45839;44.882;20.650;2023-06-22T05:57:59;16.50;;;13.30;;
59978;SDS011;45839;44.882;20.650;2023-06-22T06:00:25;19.27;;;16.85;;
59978;SDS011;45839;44.882;20.650;2023-06-22T06:02:54;23.77;;;21.30;;
59978;SDS011;45839;44.882;20.650;2023-06-22T06:05:20;25.27;;;22.00;;
59978;SDS011;45839;44.882;20.650;2023-06-22T06:07:48;22.25;;;19.85;;
59978;SDS011;45839;44.882;20.650;2023-06-22T06:10:15;31.40;;;28.13;;
59978;SDS011;45839;44.882;20.650;2023-06-22T06:12:41;29.88;;;26.83;;
59978;SDS011;45839;44.882;20.650;2023-06-22T06:15:07;26.05;;;23.40;;
59978;SDS011;45839;44.882;20.650;2023-06-22T06:17:33;35.53;;;31.80;;
59978;SDS011;45839;44.882;20.650;2023-06-22T06:19:59;34.72;;;30.17;;
59978;SDS011;45839;44.882;20.650;2023-06-22T06:22:25;34.72;;;30.75;;
59978;SDS011;45839;44.882;20.650;2023-06-22T06:24:51;77.43;;;69.63;;
59978;SDS011;45839;44.882;20.650;2023-06-22T06:27:17;43.00;;;38.42;;
59978;SDS011;45839;44.882;20.650;2023-06-22T06:29:43;65.20;;;58.42;;
59978;SDS011;45839;44.882;20.650;2023-06-22T06:32:13;66.40;;;59.58;;
59978;SDS011;45839;44.882;20.650;2023-06-22T06:34:40;35.63;;;31.85;;
59978;SDS011;45839;44.882;20.650;2023-06-22T06:37:06;23.17;;;20.83;;
59978;SDS011;45839;44.882;20.650;2023-06-22T06:39:32;33.40;;;29.95;;
59978;SDS011;45839;44.882;20.650;2023-06-22T06:41:58;38.83;;;34.83;;
59978;SDS011;45839;44.882;20.650;2023-06-22T06:44:24;28.00;;;25.15;;
59978;SDS011;45839;44.882;20.650;2023-06-22T06:46:50;35.35;;;31.88;;
59978;SDS011;45839;44.882;20.650;2023-06-22T06:49:16;30.55;;;27.60;;
59978;SDS011;45839;44.882;20.650;2023-06-22T06:51:42;19.48;;;16.25;;
59978;SDS011;45839;44.882;20.650;2023-06-22T06:54:08;16.55;;;14.82;;
59978;SDS011;45839;44.882;20.650;2023-06-22T06:56:34;13.73;;;12.00;;
59978;SDS011;45839;44.882;20.650;2023-06-22T06:59:01;17.55;;;12.70;;
59978;SDS011;45839;44.882;20.650;2023-06-22T07:01:27;15.73;;;13.48;;
59978;SDS011;45839;44.882;20.650;2023-06-22T07:03:58;14.93;;;12.55;;
59978;SDS011;45839;44.882;20.650;2023-06-22T07:06:24;15.10;;;13.02;;
59978;SDS011;45839;44.882;20.650;2023-06-22T07:08:54;14.40;;;12.60;;
59978;SDS011;45839;44.882;20.650;2023-06-22T07:11:20;43.00;;;38.53;;
59978;SDS011;45839;44.882;20.650;2023-06-22T07:13:46;18.80;;;15.30;;
59978;SDS011;45839;44.882;20.650;2023-06-22T07:16:12;144.85;;;130.43;;
59978;SDS011;45839;44.882;20.650;2023-06-22T07:18:39;32.17;;;28.92;;
59978;SDS011;45839;44.882;20.650;2023-06-22T07:21:05;18.90;;;16.92;;
59978;SDS011;45839;44.882;20.650;2023-06-22T07:23:32;27.80;;;22.60;;
59978;SDS011;45839;44.882;20.650;2023-06-22T07:25:58;16.20;;;14.45;;
59978;SDS011;45839;44.882;20.650;2023-06-22T07:28:27;13.23;;;11.13;;
59978;SDS011;45839;44.882;20.650;2023-06-22T07:31:02;14.95;;;13.32;;
59978;SDS011;45839;44.882;20.650;2023-06-22T07:33:29;12.10;;;8.75;;
59978;SDS011;45839;44.882;20.650;2023-06-22T07:35:55;11.30;;;9.80;;
59978;SDS011;45839;44.882;20.650;2023-06-22T07:38:21;11.63;;;10.13;;
59978;SDS011;45839;44.882;20.650;2023-06-22T07:40:47;14.05;;;12.30;;
59978;SDS011;45839;44.882;20.650;2023-06-22T07:43:13;11.30;;;9.88;;
59978;SDS011;45839;44.882;20.650;2023-06-22T07:45:39;16.67;;;14.52;;
59978;SDS011;45839;44.882;20.650;2023-06-22T07:48:07;10.35;;;9.00;;
59978;SDS011;45839;44.882;20.650;2023-06-22T07:50:33;12.70;;;10.50;;
59978;SDS011;45839;44.882;20.650;2023-06-22T07:53:01;11.15;;;8.15;;
59978;SDS011;45839;44.882;20.650;2023-06-22T07:55:35;13.63;;;10.07;;
59978;SDS011;45839;44.882;20.650;2023-06-22T07:58:03;10.18;;;8.60;;
59978;SDS011;45839;44.882;20.650;2023-06-22T08:00:29;11.30;;;9.20;;
59978;SDS011;45839;44.882;20.650;2023-06-22T08:02:55;10.95;;;8.73;;
59978;SDS011;45839;44.882;20.650;2023-06-22T08:05:21;14.18;;;8.82;;
59978;SDS011;45839;44.882;20.650;2023-06-22T08:07:50;10.18;;;8.07;;
59978;SDS011;45839;44.882;20.650;2023-06-22T08:10:17;14.57;;;8.45;;
59978;SDS011;45839;44.882;20.650;2023-06-22T08:12:51;9.95;;;8.40;;
59978;SDS011;45839;44.882;20.650;2023-06-22T08:15:21;10.85;;;8.32;;
59978;SDS011;45839;44.882;20.650;2023-06-22T08:17:55;10.60;;;7.65;;
59978;SDS011;45839;44.882;20.650;2023-06-22T08:20:22;9.98;;;8.40;;
59978;SDS011;45839;44.882;20.650;2023-06-22T08:22:49;12.65;;;7.47;;
59978;SDS011;45839;44.882;20.650;2023-06-22T08:25:15;8.65;;;6.72;;
59978;SDS011;45839;44.882;20.650;2023-06-22T08:27:44;7.90;;;6.50;;
59978;SDS011;45839;44.882;20.650;2023-06-22T08:30:11;12.32;;;8.32;;
59978;SDS011;45839;44.882;20.650;2023-06-22T08:32:37;11.93;;;9.15;;
59978;SDS011;45839;44.882;20.650;2023-06-22T08:35:03;9.43;;;5.93;;
59978;SDS011;45839;44.882;20.650;2023-06-22T08:37:31;7.57;;;5.63;;
59978;SDS011;45839;44.882;20.650;2023-06-22T08:40:00;8.18;;;5.47;;
59978;SDS011;45839;44.882;20.650;2023-06-22T08:42:32;8.40;;;6.10;;
59978;SDS011;45839;44.882;20.650;2023-06-22T08:44:58;9.63;;;4.93;;
59978;SDS011;45839;44.882;20.650;2023-06-22T08:47:24;5.97;;;3.97;;
59978;SDS011;45839;44.882;20.650;2023-06-22T08:49:50;6.68;;;5.05;;
59978;SDS011;45839;44.882;20.650;2023-06-22T08:52:17;7.78;;;4.90;;
59978;SDS011;45839;44.882;20.650;2023-06-22T08:54:45;5.57;;;3.85;;
59978;SDS011;45839;44.882;20.650;2023-06-22T08:57:11;5.65;;;3.78;;
59978;SDS011;45839;44.882;20.650;2023-06-22T08:59:37;5.30;;;3.22;;
59978;SDS011;45839;44.882;20.650;2023-06-22T09:02:03;6.97;;;4.53;;
59978;SDS011;45839;44.882;20.650;2023-06-22T09:04:29;8.40;;;4.05;;
59978;SDS011;45839;44.882;20.650;2023-06-22T09:06:59;8.57;;;4.18;;
59978;SDS011;45839;44.882;20.650;2023-06-22T09:09:25;7.57;;;4.47;;
59978;SDS011;45839;44.882;20.650;2023-06-22T09:11:51;6.30;;;3.90;;
59978;SDS011;45839;44.882;20.650;2023-06-22T09:14:17;5.72;;;3.58;;
59978;SDS011;45839;44.882;20.650;2023-06-22T09:16:43;6.78;;;3.58;;
59978;SDS011;45839;44.882;20.650;2023-06-22T09:19:10;6.10;;;3.53;;
59978;SDS011;45839;44.882;20.650;2023-06-22T09:21:36;7.60;;;3.90;;
59978;SDS011;45839;44.882;20.650;2023-06-22T09:24:02;6.30;;;3.78;;
59978;SDS011;45839;44.882;20.650;2023-06-22T09:26:28;6.07;;;3.60;;
59978;SDS011;45839;44.882;20.650;2023-06-22T09:28:54;5.78;;;3.67;;
59978;SDS011;45839;44.882;20.650;2023-06-22T09:31:20;6.55;;;3.85;;
59978;SDS011;45839;44.882;20.650;2023-06-22T09:33:53;5.28;;;3.72;;
59978;SDS011;45839;44.882;20.650;2023-06-22T09:36:20;7.13;;;3.83;;
59978;SDS011;45839;44.882;20.650;2023-06-22T09:38:47;6.15;;;3.33;;
59978;SDS011;45839;44.882;20.650;2023-06-22T09:41:13;5.60;;;3.60;;
59978;SDS011;45839;44.882;20.650;2023-06-22T09:43:39;6.45;;;4.28;;
59978;SDS011;45839;44.882;20.650;2023-06-22T09:46:05;7.15;;;4.10;;
59978;SDS011;45839;44.882;20.650;2023-06-22T09:48:32;8.55;;;5.15;;
59978;SDS011;45839;44.882;20.650;2023-06-22T09:50:58;8.98;;;5.65;;
59978;SDS011;45839;44.882;20.650;2023-06-22T09:53:24;7.88;;;5.53;;
59978;SDS011;45839;44.882;20.650;2023-06-22T09:55:50;6.72;;;5.07;;
59978;SDS011;45839;44.882;20.650;2023-06-22T09:58:16;7.07;;;5.03;;
59978;SDS011;45839;44.882;20.650;2023-06-22T10:00:42;7.20;;;5.95;;
59978;SDS011;45839;44.882;20.650;2023-06-22T10:03:09;9.48;;;6.05;;
59978;SDS011;45839;44.882;20.650;2023-06-22T10:05:35;9.55;;;5.68;;
59978;SDS011;45839;44.882;20.650;2023-06-22T10:08:01;8.48;;;6.20;;
59978;SDS011;45839;44.882;20.650;2023-06-22T10:10:27;9.15;;;5.20;;
59978;SDS011;45839;44.882;20.650;2023-06-22T10:12:57;8.52;;;6.15;;
59978;SDS011;45839;44.882;20.650;2023-06-22T10:15:23;8.13;;;5.97;;
59978;SDS011;45839;44.882;20.650;2023-06-22T10:17:51;8.02;;;6.30;;
59978;SDS011;45839;44.882;20.650;2023-06-22T10:20:18;7.47;;;5.90;;
59978;SDS011;45839;44.882;20.650;2023-06-22T10:22:45;9.05;;;6.50;;
59978;SDS011;45839;44.882;20.650;2023-06-22T10:25:12;8.30;;;5.97;;
59978;SDS011;45839;44.882;20.650;2023-06-22T10:27:38;8.73;;;6.97;;
59978;SDS011;45839;44.882;20.650;2023-06-22T10:30:05;9.18;;;6.57;;
59978;SDS011;45839;44.882;20.650;2023-06-22T10:32:31;10.68;;;6.80;;
59978;SDS011;45839;44.882;20.650;2023-06-22T10:34:58;8.50;;;6.10;;
59978;SDS011;45839;44.882;20.650;2023-06-22T10:37:24;7.88;;;6.03;;
59978;SDS011;45839;44.882;20.650;2023-06-22T10:39:50;8.15;;;6.07;;
59978;SDS011;45839;44.882;20.650;2023-06-22T10:42:16;9.38;;;6.50;;
59978;SDS011;45839;44.882;20.650;2023-06-22T10:44:42;8.43;;;5.82;;
59978;SDS011;45839;44.882;20.650;2023-06-22T10:47:09;8.25;;;6.63;;
59978;SDS011;45839;44.882;20.650;2023-06-22T10:49:37;8.90;;;6.78;;
59978;SDS011;45839;44.882;20.650;2023-06-22T10:52:03;9.85;;;8.60;;
59978;SDS011;45839;44.882;20.650;2023-06-22T10:54:29;9.38;;;7.20;;
59978;SDS011;45839;44.882;20.650;2023-06-22T10:56:55;9.38;;;6.60;;
59978;SDS011;45839;44.882;20.650;2023-06-22T10:59:21;12.32;;;6.47;;
59978;SDS011;45839;44.882;20.650;2023-06-22T11:01:48;12.70;;;9.32;;
59978;SDS011;45839;44.882;20.650;2023-06-22T11:04:14;11.63;;;8.63;;
59978;SDS011;45839;44.882;20.650;2023-06-22T11:06:42;11.38;;;9.23;;
59978;SDS011;45839;44.882;20.650;2023-06-22T11:09:08;17.38;;;9.15;;
59978;SDS011;45839;44.882;20.650;2023-06-22T11:11:34;15.23;;;13.63;;
59978;SDS011;45839;44.882;20.650;2023-06-22T11:14:01;14.90;;;10.18;;
59978;SDS011;45839;44.882;20.650;2023-06-22T11:16:27;11.10;;;8.77;;
59978;SDS011;45839;44.882;20.650;2023-06-22T11:18:53;12.90;;;9.90;;
59978;SDS011;45839;44.882;20.650;2023-06-22T11:21:19;10.32;;;7.35;;
59978;SDS011;45839;44.882;20.650;2023-06-22T11:23:46;8.95;;;6.22;;
59978;SDS011;45839;44.882;20.650;2023-06-22T11:26:12;14.25;;;12.40;;
59978;SDS011;45839;44.882;20.650;2023-06-22T11:28:38;16.58;;;14.77;;
59978;SDS011;45839;44.882;20.650;2023-06-22T11:31:04;18.33;;;16.42;;
59978;SDS011;45839;44.882;20.650;2023-06-22T11:33:32;26.80;;;24.05;;
59978;SDS011;45839;44.882;20.650;2023-06-22T11:35:58;21.27;;;18.23;;
59978;SDS011;45839;44.882;20.650;2023-06-22T11:38:27;13.43;;;11.40;;
59978;SDS011;45839;44.882;20.650;2023-06-22T11:41:07;12.80;;;9.80;;
59978;SDS011;45839;44.882;20.650;2023-06-22T11:43:33;12.25;;;9.57;;
59978;SDS011;45839;44.882;20.650;2023-06-22T11:46:00;9.63;;;7.18;;
59978;SDS011;45839;44.882;20.650;2023-06-22T11:48:26;9.07;;;6.32;;
59978;SDS011;45839;44.882;20.650;2023-06-22T11:50:52;8.05;;;6.30;;
59978;SDS011;45839;44.882;20.650;2023-06-22T11:53:20;9.50;;;6.22;;
59978;SDS011;45839;44.882;20.650;2023-06-22T11:55:47;10.25;;;6.75;;
59978;SDS011;45839;44.882;20.650;2023-06-22T11:58:14;7.97;;;6.20;;
59978;SDS011;45839;44.882;20.650;2023-06-22T12:00:40;8.88;;;5.47;;
59978;SDS011;45839;44.882;20.650;2023-06-22T12:03:07;8.23;;;6.40;;
59978;SDS011;45839;44.882;20.650;2023-06-22T12:05:34;9.57;;;7.18;;
59978;SDS011;45839;44.882;20.650;2023-06-22T12:08:00;9.13;;;6.35;;
59978;SDS011;45839;44.882;20.650;2023-06-22T12:10:26;8.93;;;5.90;;
59978;SDS011;45839;44.882;20.650;2023-06-22T12:12:56;7.30;;;5.80;;
59978;SDS011;45839;44.882;20.650;2023-06-22T12:15:23;8.63;;;6.53;;
59978;SDS011;45839;44.882;20.650;2023-06-22T12:17:49;7.97;;;6.10;;
59978;SDS011;45839;44.882;20.650;2023-06-22T12:20:15;8.80;;;5.30;;
59978;SDS011;45839;44.882;20.650;2023-06-22T12:22:43;7.60;;;5.50;;
59978;SDS011;45839;44.882;20.650;2023-06-22T12:25:09;7.15;;;5.57;;
59978;SDS011;45839;44.882;20.650;2023-06-22T12:27:35;11.77;;;6.80;;
59978;SDS011;45839;44.882;20.650;2023-06-22T12:30:02;10.00;;;6.90;;
59978;SDS011;45839;44.882;20.650;2023-06-22T12:32:28;8.73;;;5.93;;
59978;SDS011;45839;44.882;20.650;2023-06-22T12:34:55;7.82;;;5.57;;
59978;SDS011;45839;44.882;20.650;2023-06-22T12:37:22;7.97;;;5.20;;
59978;SDS011;45839;44.882;20.650;2023-06-22T12:39:48;8.52;;;5.78;;
59978;SDS011;45839;44.882;20.650;2023-06-22T12:42:15;10.77;;;8.13;;
59978;SDS011;45839;44.882;20.650;2023-06-22T12:44:41;8.77;;;6.15;;
59978;SDS011;45839;44.882;20.650;2023-06-22T12:47:07;9.77;;;6.50;;
59978;SDS011;45839;44.882;20.650;2023-06-22T12:49:36;9.40;;;7.60;;
59978;SDS011;45839;44.882;20.650;2023-06-22T12:52:02;9.63;;;7.43;;
59978;SDS011;45839;44.882;20.650;2023-06-22T12:54:29;9.73;;;7.40;;
59978;SDS011;45839;44.882;20.650;2023-06-22T12:56:55;9.70;;;6.95;;
59978;SDS011;45839;44.882;20.650;2023-06-22T12:59:21;7.22;;;5.53;;
59978;SDS011;45839;44.882;20.650;2023-06-22T13:01:47;10.50;;;8.63;;
59978;SDS011;45839;44.882;20.650;2023-06-22T13:04:13;11.20;;;8.60;;
59978;SDS011;45839;44.882;20.650;2023-06-22T13:06:43;8.88;;;6.82;;
59978;SDS011;45839;44.882;20.650;2023-06-22T13:09:12;7.90;;;6.20;;
59978;SDS011;45839;44.882;20.650;2023-06-22T13:11:38;7.38;;;5.05;;
59978;SDS011;45839;44.882;20.650;2023-06-22T13:14:04;8.73;;;5.03;;
59978;SDS011;45839;44.882;20.650;2023-06-22T13:16:32;8.55;;;4.68;;
59978;SDS011;45839;44.882;20.650;2023-06-22T13:18:59;7.50;;;4.53;;
59978;SDS011;45839;44.882;20.650;2023-06-22T13:21:25;6.78;;;4.75;;
59978;SDS011;45839;44.882;20.650;2023-06-22T13:23:51;8.55;;;5.47;;
59978;SDS011;45839;44.882;20.650;2023-06-22T13:26:17;7.65;;;4.88;;
59978;SDS011;45839;44.882;20.650;2023-06-22T13:28:43;8.98;;;4.88;;
59978;SDS011;45839;44.882;20.650;2023-06-22T13:31:09;6.15;;;4.38;;
59978;SDS011;45839;44.882;20.650;2023-06-22T13:33:35;6.63;;;5.07;;
59978;SDS011;45839;44.882;20.650;2023-06-22T13:36:01;10.13;;;5.00;;
59978;SDS011;45839;44.882;20.650;2023-06-22T13:38:28;8.02;;;4.38;;
59978;SDS011;45839;44.882;20.650;2023-06-22T13:40:55;7.70;;;4.60;;
59978;SDS011;45839;44.882;20.650;2023-06-22T13:43:28;6.90;;;4.53;;
59978;SDS011;45839;44.882;20.650;2023-06-22T13:45:56;9.95;;;4.30;;
59978;SDS011;45839;44.882;20.650;2023-06-22T13:48:22;8.52;;;5.03;;
59978;SDS011;45839;44.882;20.650;2023-06-22T13:50:51;18.77;;;5.22;;
59978;SDS011;45839;44.882;20.650;2023-06-22T13:53:17;8.52;;;5.20;;
59978;SDS011;45839;44.882;20.650;2023-06-22T13:55:43;9.40;;;5.72;;
59978;SDS011;45839;44.882;20.650;2023-06-22T13:58:09;8.32;;;5.50;;
59978;SDS011;45839;44.882;20.650;2023-06-22T14:00:35;8.50;;;5.80;;
59978;SDS011;45839;44.882;20.650;2023-06-22T14:03:01;6.90;;;5.57;;
59978;SDS011;45839;44.882;20.650;2023-06-22T14:05:30;8.07;;;4.97;;
59978;SDS011;45839;44.882;20.650;2023-06-22T14:07:56;8.70;;;5.35;;
59978;SDS011;45839;44.882;20.650;2023-06-22T14:10:22;7.53;;;4.75;;
59978;SDS011;45839;44.882;20.650;2023-06-22T14:12:48;7.57;;;4.95;;
59978;SDS011;45839;44.882;20.650;2023-06-22T14:15:14;10.63;;;5.28;;
59978;SDS011;45839;44.882;20.650;2023-06-22T14:17:40;8.40;;;6.75;;
59978;SDS011;45839;44.882;20.650;2023-06-22T14:20:06;12.20;;;8.00;;
59978;SDS011;45839;44.882;20.650;2023-06-22T14:22:33;7.43;;;5.22;;
59978;SDS011;45839;44.882;20.650;2023-06-22T14:25:00;8.52;;;5.60;;
59978;SDS011;45839;44.882;20.650;2023-06-22T14:27:29;6.85;;;4.65;;
59978;SDS011;45839;44.882;20.650;2023-06-22T14:30:04;6.03;;;4.22;;
59978;SDS011;45839;44.882;20.650;2023-06-22T14:32:30;9.68;;;4.72;;
59978;SDS011;45839;44.882;20.650;2023-06-22T14:35:03;8.25;;;4.70;;
59978;SDS011;45839;44.882;20.650;2023-06-22T14:37:29;8.40;;;4.80;;
59978;SDS011;45839;44.882;20.650;2023-06-22T14:39:55;8.40;;;4.18;;
59978;SDS011;45839;44.882;20.650;2023-06-22T14:42:21;7.47;;;4.40;;
59978;SDS011;45839;44.882;20.650;2023-06-22T14:44:56;6.82;;;4.35;;
59978;SDS011;45839;44.882;20.650;2023-06-22T14:47:22;7.57;;;3.78;;
59978;SDS011;45839;44.882;20.650;2023-06-22T14:49:57;9.15;;;4.53;;
59978;SDS011;45839;44.882;20.650;2023-06-22T14:52:25;6.97;;;4.00;;
59978;SDS011;45839;44.882;20.650;2023-06-22T14:54:52;6.80;;;3.95;;
59978;SDS011;45839;44.882;20.650;2023-06-22T14:57:20;9.85;;;7.15;;
59978;SDS011;45839;44.882;20.650;2023-06-22T14:59:53;9.00;;;4.90;;
59978;SDS011;45839;44.882;20.650;2023-06-22T15:02:20;8.25;;;4.28;;
59978;SDS011;45839;44.882;20.650;2023-06-22T15:04:55;9.88;;;4.50;;
59978;SDS011;45839;44.882;20.650;2023-06-22T15:09:48;8.38;;;5.10;;
59978;SDS011;45839;44.882;20.650;2023-06-22T15:12:14;7.80;;;4.25;;
59978;SDS011;45839;44.882;20.650;2023-06-22T15:14:46;9.50;;;4.40;;
59978;SDS011;45839;44.882;20.650;2023-06-22T15:17:12;8.55;;;4.25;;
59978;SDS011;45839;44.882;20.650;2023-06-22T15:19:40;6.80;;;4.28;;
59978;SDS011;45839;44.882;20.650;2023-06-22T15:22:06;7.40;;;3.97;;
59978;SDS011;45839;44.882;20.650;2023-06-22T15:24:33;10.23;;;4.78;;
59978;SDS011;45839;44.882;20.650;2023-06-22T15:26:59;9.60;;;5.10;;
59978;SDS011;45839;44.882;20.650;2023-06-22T15:29:26;7.18;;;4.00;;
59978;SDS011;45839;44.882;20.650;2023-06-22T15:31:52;6.78;;;3.92;;
59978;SDS011;45839;44.882;20.650;2023-06-22T15:34:18;8.00;;;4.03;;
59978;SDS011;45839;44.882;20.650;2023-06-22T15:36:44;6.10;;;3.80;;
59978;SDS011;45839;44.882;20.650;2023-06-22T15:39:11;7.13;;;4.28;;
59978;SDS011;45839;44.882;20.650;2023-06-22T15:41:40;8.48;;;4.07;;
59978;SDS011;45839;44.882;20.650;2023-06-22T15:44:07;9.35;;;4.20;;
59978;SDS011;45839;44.882;20.650;2023-06-22T15:46:33;6.53;;;3.88;;
59978;SDS011;45839;44.882;20.650;2023-06-22T15:48:59;6.57;;;3.80;;
59978;SDS011;45839;44.882;20.650;2023-06-22T15:51:25;7.78;;;3.80;;
59978;SDS011;45839;44.882;20.650;2023-06-22T15:53:53;5.93;;;3.42;;
59978;SDS011;45839;44.882;20.650;2023-06-22T15:56:19;7.03;;;3.90;;
59978;SDS011;45839;44.882;20.650;2023-06-22T15:58:45;6.57;;;3.78;;
59978;SDS011;45839;44.882;20.650;2023-06-22T16:01:11;7.20;;;3.75;;
59978;SDS011;45839;44.882;20.650;2023-06-22T16:03:38;7.95;;;4.95;;
59978;SDS011;45839;44.882;20.650;2023-06-22T16:06:04;8.80;;;4.88;;
59978;SDS011;45839;44.882;20.650;2023-06-22T16:08:30;19.98;;;16.60;;
59978;SDS011;45839;44.882;20.650;2023-06-22T16:10:58;16.58;;;11.85;;
59978;SDS011;45839;44.882;20.650;2023-06-22T16:13:24;30.40;;;27.13;;
59978;SDS011;45839;44.882;20.650;2023-06-22T16:15:50;15.40;;;9.77;;
59978;SDS011;45839;44.882;20.650;2023-06-22T16:18:17;10.98;;;6.43;;
59978;SDS011;45839;44.882;20.650;2023-06-22T16:20:46;10.68;;;6.32;;
59978;SDS011;45839;44.882;20.650;2023-06-22T16:23:12;10.02;;;4.75;;
59978;SDS011;45839;44.882;20.650;2023-06-22T16:25:38;8.38;;;3.95;;
59978;SDS011;45839;44.882;20.650;2023-06-22T16:28:04;8.77;;;3.72;;
59978;SDS011;45839;44.882;20.650;2023-06-22T16:30:30;9.10;;;4.18;;
59978;SDS011;45839;44.882;20.650;2023-06-22T16:32:57;7.85;;;3.97;;
59978;SDS011;45839;44.882;20.650;2023-06-22T16:35:27;7.47;;;3.80;;
59978;SDS011;45839;44.882;20.650;2023-06-22T16:38:04;10.20;;;3.70;;
59978;SDS011;45839;44.882;20.650;2023-06-22T16:40:30;7.60;;;4.00;;
59978;SDS011;45839;44.882;20.650;2023-06-22T16:42:56;9.18;;;3.80;;
59978;SDS011;45839;44.882;20.650;2023-06-22T16:45:22;9.05;;;4.07;;
59978;SDS011;45839;44.882;20.650;2023-06-22T16:47:50;7.13;;;4.05;;
59978;SDS011;45839;44.882;20.650;2023-06-22T16:50:17;8.98;;;4.15;;
59978;SDS011;45839;44.882;20.650;2023-06-22T16:52:43;8.25;;;3.92;;
59978;SDS011;45839;44.882;20.650;2023-06-22T16:55:10;8.07;;;4.15;;
59978;SDS011;45839;44.882;20.650;2023-06-22T16:57:37;7.90;;;4.10;;
59978;SDS011;45839;44.882;20.650;2023-06-22T17:00:03;12.55;;;3.95;;
59978;SDS011;45839;44.882;20.650;2023-06-22T17:02:34;8.75;;;3.90;;
59978;SDS011;45839;44.882;20.650;2023-06-22T17:05:03;11.60;;;3.78;;
59978;SDS011;45839;44.882;20.650;2023-06-22T17:07:29;8.52;;;3.92;;
59978;SDS011;45839;44.882;20.650;2023-06-22T17:09:57;8.68;;;3.80;;
59978;SDS011;45839;44.882;20.650;2023-06-22T17:12:23;8.25;;;4.03;;
59978;SDS011;45839;44.882;20.650;2023-06-22T17:14:51;9.82;;;4.22;;
59978;SDS011;45839;44.882;20.650;2023-06-22T17:17:17;9.48;;;4.25;;
59978;SDS011;45839;44.882;20.650;2023-06-22T17:19:44;8.80;;;4.15;;
59978;SDS011;45839;44.882;20.650;2023-06-22T17:22:11;10.07;;;4.13;;
59978;SDS011;45839;44.882;20.650;2023-06-22T17:24:37;8.85;;;4.15;;
59978;SDS011;45839;44.882;20.650;2023-06-22T17:27:05;11.73;;;4.60;;
59978;SDS011;45839;44.882;20.650;2023-06-22T17:29:31;8.73;;;4.55;;
59978;SDS011;45839;44.882;20.650;2023-06-22T17:32:01;8.13;;;4.38;;
59978;SDS011;45839;44.882;20.650;2023-06-22T17:34:28;12.57;;;4.35;;
59978;SDS011;45839;44.882;20.650;2023-06-22T17:36:54;8.60;;;4.40;;
59978;SDS011;45839;44.882;20.650;2023-06-22T17:39:22;9.77;;;4.70;;
59978;SDS011;45839;44.882;20.650;2023-06-22T17:41:48;9.10;;;4.15;;
59978;SDS011;45839;44.882;20.650;2023-06-22T17:44:24;10.88;;;4.28;;
59978;SDS011;45839;44.882;20.650;2023-06-22T17:46:57;8.52;;;4.20;;
59978;SDS011;45839;44.882;20.650;2023-06-22T17:49:29;11.15;;;5.35;;
59978;SDS011;45839;44.882;20.650;2023-06-22T17:52:00;8.45;;;5.57;;
59978;SDS011;45839;44.882;20.650;2023-06-22T17:54:29;10.98;;;4.63;;